createdAt,value
2022-11-16T00:02:16.550Z,8.38
2022-11-16T00:04:42.986Z,8.18
2022-11-16T00:07:09.951Z,7.47
2022-11-16T00:09:36.411Z,7.03
2022-11-16T00:12:06.331Z,6.88
2022-11-16T00:14:35.291Z,7.18
2022-11-16T00:17:02.432Z,7.22
2022-11-16T00:19:29.239Z,7.50
2022-11-16T00:21:55.868Z,6.55
2022-11-16T00:24:23.410Z,8.13
2022-11-16T00:26:50.437Z,8.15
2022-11-16T00:29:19.482Z,7.45
2022-11-16T00:31:46.381Z,7.45
2022-11-16T00:34:13.630Z,7.78
2022-11-16T00:36:39.993Z,6.85
2022-11-16T00:39:06.397Z,8.25
2022-11-16T00:41:32.979Z,6.88
2022-11-16T00:43:59.316Z,8.10
2022-11-16T00:46:25.781Z,8.27
2022-11-16T00:48:52.214Z,6.28
2022-11-16T00:51:18.697Z,7.63
2022-11-16T00:53:45.014Z,7.68
2022-11-16T00:56:11.469Z,8.95
2022-11-16T00:58:37.837Z,7.72
2022-11-16T01:01:06.357Z,8.70
2022-11-16T01:03:34.233Z,7.53
2022-11-16T01:06:06.002Z,7.68
2022-11-16T01:08:35.074Z,8.50
2022-11-16T01:11:21.716Z,8.02
2022-11-16T01:13:49.156Z,7.72
2022-11-16T01:16:16.615Z,8.07
2022-11-16T01:18:43.880Z,6.82
2022-11-16T01:21:10.437Z,7.70
2022-11-16T01:23:36.823Z,8.55
2022-11-16T01:26:09.124Z,7.25
2022-11-16T01:28:35.900Z,7.22
2022-11-16T01:31:02.704Z,7.20
2022-11-16T01:33:29.683Z,8.00
2022-11-16T01:35:56.032Z,8.98
2022-11-16T01:38:25.914Z,7.53
2022-11-16T01:40:54.893Z,8.27
2022-11-16T01:43:26.989Z,7.38
2022-11-16T01:48:27.596Z,8.00
2022-11-16T01:50:55.038Z,7.93
2022-11-16T01:53:24.000Z,8.55
2022-11-16T01:55:50.705Z,8.43
2022-11-16T01:58:23.218Z,7.35
2022-11-16T02:00:50.162Z,8.75
2022-11-16T02:03:20.690Z,9.88
2022-11-16T02:06:22.816Z,9.40
2022-11-16T02:09:39.120Z,9.65
2022-11-16T02:12:26.958Z,8.75
2022-11-16T02:15:23.266Z,7.80
2022-11-16T02:17:55.644Z,6.28
2022-11-16T02:20:46.674Z,7.95
2022-11-16T02:23:43.290Z,7.65
2022-11-16T02:26:28.141Z,7.38
2022-11-16T02:29:18.961Z,7.88
2022-11-16T02:32:04.729Z,7.38
2022-11-16T02:34:39.194Z,8.15
2022-11-16T02:37:09.650Z,8.52
2022-11-16T02:39:41.188Z,8.02
2022-11-16T02:42:15.476Z,8.18
2022-11-16T02:44:47.365Z,8.38
2022-11-16T02:47:20.857Z,8.10
2022-11-16T02:49:52.754Z,8.27
2022-11-16T02:52:21.451Z,8.15
2022-11-16T02:54:47.780Z,8.52
2022-11-16T02:57:35.279Z,9.18
2022-11-16T03:00:02.664Z,7.93
2022-11-16T03:02:55.896Z,12.90
2022-11-16T03:05:35.248Z,26.45
2022-11-16T03:08:38.564Z,18.30
2022-11-16T03:11:26.139Z,11.95
2022-11-16T03:13:57.292Z,9.85
2022-11-16T03:16:30.006Z,8.97
2022-11-16T03:18:58.873Z,9.45
2022-11-16T03:21:43.705Z,10.30
2022-11-16T03:24:10.792Z,8.68
2022-11-16T03:26:49.276Z,9.82
2022-11-16T03:29:29.226Z,10.55
2022-11-16T03:32:03.635Z,10.45
2022-11-16T03:34:35.869Z,8.57
2022-11-16T03:37:04.017Z,9.45
2022-11-16T03:39:35.627Z,11.52
2022-11-16T03:42:06.668Z,10.90
2022-11-16T03:44:33.586Z,11.00
2022-11-16T03:47:01.598Z,10.43
2022-11-16T03:49:31.310Z,8.98
2022-11-16T03:52:01.308Z,9.70
2022-11-16T03:54:27.649Z,10.27
2022-11-16T03:56:53.982Z,8.70
2022-11-16T03:59:20.326Z,9.07
2022-11-16T04:01:46.782Z,7.57
2022-11-16T04:04:35.436Z,9.20
2022-11-16T04:07:22.167Z,8.68
2022-11-16T04:10:07.097Z,8.38
2022-11-16T04:12:52.174Z,8.93
2022-11-16T04:15:36.974Z,8.57
2022-11-16T04:18:22.558Z,10.18
2022-11-16T04:21:07.949Z,8.45
2022-11-16T04:23:52.633Z,9.88
2022-11-16T04:26:18.967Z,8.85
2022-11-16T04:28:45.459Z,8.73
2022-11-16T04:31:30.510Z,8.82
2022-11-16T04:34:15.290Z,8.95
2022-11-16T04:37:00.227Z,8.27
2022-11-16T04:39:26.592Z,7.45
2022-11-16T04:42:11.522Z,8.57
2022-11-16T04:45:00.446Z,6.97
2022-11-16T04:47:26.762Z,7.22
2022-11-16T04:49:53.069Z,7.82
2022-11-16T04:52:19.430Z,6.75
2022-11-16T04:54:45.804Z,6.53
2022-11-16T04:57:12.141Z,7.20
2022-11-16T04:59:38.557Z,6.00
2022-11-16T05:02:10.857Z,7.10
2022-11-16T05:04:39.634Z,7.40
2022-11-16T05:07:10.919Z,7.18
2022-11-16T05:09:44.731Z,6.63
2022-11-16T05:12:15.487Z,8.20
2022-11-16T05:14:42.766Z,6.90
2022-11-16T05:17:09.884Z,6.95
2022-11-16T05:19:54.843Z,7.65
2022-11-16T05:22:21.412Z,7.18
2022-11-16T05:24:47.757Z,7.63
2022-11-16T05:27:16.234Z,7.43
2022-11-16T05:29:42.659Z,7.55
2022-11-16T05:32:11.169Z,7.70
2022-11-16T05:34:37.873Z,6.72
2022-11-16T05:37:04.385Z,6.97
2022-11-16T05:39:30.731Z,7.72
2022-11-16T05:41:57.505Z,8.30
2022-11-16T05:44:24.535Z,7.70
2022-11-16T05:46:51.145Z,8.18
2022-11-16T05:49:17.903Z,8.25
2022-11-16T05:51:46.147Z,8.20
2022-11-16T05:54:18.597Z,8.82
2022-11-16T05:56:45.849Z,8.48
2022-11-16T05:59:16.598Z,9.32
2022-11-16T06:01:44.267Z,8.25
2022-11-16T06:04:11.453Z,8.90
2022-11-16T06:06:38.420Z,8.35
2022-11-16T06:09:05.147Z,8.52
2022-11-16T06:11:35.779Z,8.23
2022-11-16T06:14:03.436Z,8.63
2022-11-16T06:16:29.837Z,9.30
2022-11-16T06:18:56.312Z,8.25
2022-11-16T06:21:25.363Z,7.80
2022-11-16T06:23:57.463Z,8.00
2022-11-16T06:28:50.294Z,7.47
2022-11-16T06:31:16.864Z,8.75
2022-11-16T06:33:43.353Z,7.10
2022-11-16T06:36:09.716Z,7.18
2022-11-16T06:38:36.358Z,7.32
2022-11-16T06:41:03.194Z,6.18
2022-11-16T06:43:29.662Z,7.32
2022-11-16T06:45:57.801Z,6.15
2022-11-16T06:48:24.909Z,6.50
2022-11-16T06:50:52.127Z,7.47
2022-11-16T06:53:19.112Z,6.20
2022-11-16T06:55:47.750Z,7.63
2022-11-16T06:58:14.565Z,7.05
2022-11-16T07:00:41.084Z,7.18
2022-11-16T07:03:07.475Z,8.02
2022-11-16T07:05:36.036Z,6.47
2022-11-16T07:08:02.405Z,5.20
2022-11-16T07:10:28.740Z,6.30
2022-11-16T07:12:55.077Z,5.95
2022-11-16T07:15:21.850Z,5.65
2022-11-16T07:17:48.186Z,7.25
2022-11-16T07:20:14.812Z,6.63
2022-11-16T07:22:41.165Z,6.88
2022-11-16T07:25:08.221Z,6.32
2022-11-16T07:27:34.676Z,6.53
2022-11-16T07:30:02.083Z,6.60
2022-11-16T07:32:31.000Z,5.70
2022-11-16T07:34:59.376Z,5.25
2022-11-16T07:37:26.012Z,6.97
2022-11-16T07:39:52.853Z,5.88
2022-11-16T07:42:19.278Z,6.15
2022-11-16T07:44:45.705Z,5.63
2022-11-16T07:47:12.093Z,6.28
2022-11-16T07:49:38.603Z,6.07
2022-11-16T07:52:05.161Z,5.78
2022-11-16T07:54:31.478Z,5.85
2022-11-16T07:56:57.829Z,5.60
2022-11-16T07:59:24.236Z,5.40
2022-11-16T08:01:50.653Z,5.85
2022-11-16T08:04:19.771Z,5.32
2022-11-16T08:06:46.831Z,5.50
2022-11-16T08:09:13.978Z,5.43
2022-11-16T08:11:40.394Z,5.07
2022-11-16T08:14:06.748Z,4.95
2022-11-16T08:16:33.300Z,4.45
2022-11-16T08:19:01.139Z,4.72
2022-11-16T08:21:27.571Z,4.28
2022-11-16T08:23:58.419Z,4.45
2022-11-16T08:26:25.670Z,4.57
2022-11-16T08:28:53.690Z,4.03
2022-11-16T08:31:24.037Z,4.63
2022-11-16T08:33:51.788Z,4.80
2022-11-16T08:36:18.873Z,3.83
2022-11-16T08:38:47.232Z,3.50
2022-11-16T08:41:14.022Z,4.90
2022-11-16T08:43:41.530Z,3.30
2022-11-16T08:46:09.493Z,4.18
2022-11-16T08:48:37.589Z,3.40
2022-11-16T08:51:22.000Z,3.38
2022-11-16T08:53:49.373Z,4.53
2022-11-16T08:56:18.385Z,3.22
2022-11-16T08:58:46.978Z,4.72
2022-11-16T09:01:20.128Z,4.22
2022-11-16T09:03:47.242Z,3.35
2022-11-16T09:06:14.311Z,2.78
2022-11-16T09:08:43.000Z,4.18
2022-11-16T09:11:12.746Z,3.30
2022-11-16T09:13:39.754Z,2.95
2022-11-16T09:16:06.279Z,2.65
2022-11-16T09:18:36.927Z,3.78
2022-11-16T09:21:03.927Z,2.83
2022-11-16T09:23:30.314Z,3.30
2022-11-16T09:26:01.429Z,2.72
2022-11-16T09:28:28.029Z,3.13
2022-11-16T09:31:02.467Z,3.40
2022-11-16T09:33:31.168Z,3.67
2022-11-16T09:36:06.991Z,3.15
2022-11-16T09:42:08.240Z,3.05
2022-11-16T09:44:40.241Z,4.18
2022-11-16T09:49:47.721Z,4.07
2022-11-16T09:52:28.352Z,3.63
2022-11-16T09:54:57.935Z,4.40
2022-11-16T09:57:32.518Z,4.25
2022-11-16T10:00:04.368Z,4.28
2022-11-16T10:02:41.837Z,3.70
2022-11-16T10:05:21.672Z,4.45
2022-11-16T10:08:00.100Z,5.10
2022-11-16T10:10:36.688Z,3.75
2022-11-16T10:13:20.755Z,3.97
2022-11-16T10:16:14.428Z,4.18
2022-11-16T10:19:00.385Z,3.20
2022-11-16T10:21:55.227Z,2.85
2022-11-16T10:24:44.689Z,3.25
2022-11-16T10:27:53.051Z,3.20
2022-11-16T10:30:21.742Z,3.28
2022-11-16T10:33:13.329Z,2.92
2022-11-16T10:36:10.854Z,2.45
2022-11-16T10:38:37.694Z,2.70
2022-11-16T10:41:14.240Z,2.15
2022-11-16T10:43:43.321Z,2.30
2022-11-16T10:46:21.337Z,2.42
2022-11-16T10:48:47.591Z,2.35
2022-11-16T10:51:13.977Z,2.95
2022-11-16T10:53:43.730Z,2.47
2022-11-16T10:56:21.831Z,2.80
2022-11-16T10:58:56.520Z,2.60
2022-11-16T11:01:53.263Z,2.72
2022-11-16T11:04:24.308Z,2.38
2022-11-16T11:06:58.326Z,2.58
2022-11-16T11:09:38.495Z,2.38
2022-11-16T11:12:34.292Z,2.30
2022-11-16T11:15:25.839Z,2.50
2022-11-16T11:18:14.501Z,2.28
2022-11-16T11:20:45.014Z,2.95
2022-11-16T11:23:24.770Z,1.88
2022-11-16T11:25:59.352Z,2.30
2022-11-16T11:28:27.679Z,1.88
2022-11-16T11:31:08.073Z,2.08
2022-11-16T11:33:42.631Z,2.38
2022-11-16T11:36:18.561Z,2.58
2022-11-16T11:39:06.329Z,1.63
2022-11-16T11:41:36.901Z,2.00
2022-11-16T11:44:12.501Z,2.83
2022-11-16T11:49:38.257Z,3.00
2022-11-16T11:52:33.967Z,2.60
2022-11-16T11:55:05.874Z,2.00
2022-11-16T11:57:36.604Z,1.83
2022-11-16T12:00:03.650Z,2.33
2022-11-16T12:02:46.678Z,1.98
2022-11-16T12:05:45.584Z,2.20
2022-11-16T12:08:51.161Z,2.60
2022-11-16T12:11:50.201Z,1.90
2022-11-16T12:14:32.523Z,2.63
2022-11-16T12:17:09.962Z,2.30
2022-11-16T12:20:19.115Z,2.53
2022-11-16T12:23:17.943Z,3.03
2022-11-16T12:25:57.791Z,3.40
2022-11-16T12:28:46.024Z,2.45
2022-11-16T12:31:28.412Z,2.72
2022-11-16T12:34:37.882Z,2.83
2022-11-16T12:37:16.143Z,3.92
2022-11-16T12:40:14.076Z,2.72
2022-11-16T12:42:58.408Z,2.70
2022-11-16T12:45:37.523Z,3.13
2022-11-16T12:48:12.986Z,2.40
2022-11-16T12:50:50.315Z,2.50
2022-11-16T12:53:41.290Z,1.92
2022-11-16T12:56:28.900Z,1.92
2022-11-16T12:59:16.515Z,1.77
2022-11-16T13:02:12.428Z,2.17
2022-11-16T13:04:46.045Z,2.20
2022-11-16T13:07:34.818Z,2.85
2022-11-16T13:10:07.092Z,2.25
2022-11-16T13:12:36.259Z,1.90
2022-11-16T13:15:03.315Z,1.48
2022-11-16T13:17:36.939Z,1.73
2022-11-16T13:20:14.925Z,1.77
2022-11-16T13:22:50.775Z,1.33
2022-11-16T13:25:33.739Z,3.00
2022-11-16T13:28:20.319Z,1.50
2022-11-16T13:31:02.055Z,1.48
2022-11-16T13:33:34.131Z,1.60
2022-11-16T13:36:32.297Z,2.60
2022-11-16T13:38:58.693Z,1.70
2022-11-16T13:41:35.529Z,1.17
2022-11-16T13:44:04.351Z,1.52
2022-11-16T13:46:56.142Z,2.25
2022-11-16T13:49:48.011Z,2.10
2022-11-16T13:52:23.863Z,1.63
2022-11-16T13:54:55.375Z,1.60
2022-11-16T13:57:31.141Z,2.25
2022-11-16T14:00:00.280Z,2.42
2022-11-16T14:02:34.061Z,1.88
2022-11-16T14:05:15.440Z,2.10
2022-11-16T14:07:52.059Z,1.67
2022-11-16T14:10:35.986Z,1.83
2022-11-16T14:13:04.378Z,1.77
2022-11-16T14:15:39.728Z,1.90
2022-11-16T14:18:12.047Z,1.35
2022-11-16T14:20:52.165Z,1.65
2022-11-16T14:23:44.329Z,1.60
2022-11-16T14:26:44.711Z,2.10
2022-11-16T14:29:25.916Z,2.33
2022-11-16T14:31:57.473Z,2.07
2022-11-16T14:34:30.148Z,1.42
2022-11-16T14:36:58.210Z,1.88
2022-11-16T14:39:38.726Z,1.60
2022-11-16T14:42:27.279Z,1.65
2022-11-16T14:45:07.201Z,3.05
2022-11-16T14:47:37.024Z,1.95
2022-11-16T14:50:03.763Z,1.70
2022-11-16T14:52:44.922Z,1.75
2022-11-16T14:55:19.749Z,2.27
2022-11-16T14:57:46.579Z,2.00
2022-11-16T15:00:25.660Z,1.73
2022-11-16T15:02:57.791Z,2.83
2022-11-16T15:05:33.824Z,2.22
2022-11-16T15:08:01.309Z,3.35
2022-11-16T15:10:29.014Z,2.72
2022-11-16T15:12:57.537Z,2.83
2022-11-16T15:15:27.513Z,1.75
2022-11-16T15:18:00.000Z,3.30
2022-11-16T15:20:29.057Z,2.13
2022-11-16T15:22:59.532Z,2.05
2022-11-16T15:25:31.905Z,2.45
2022-11-16T15:28:00.669Z,2.30
2022-11-16T15:30:34.129Z,2.60
2022-11-16T15:33:15.043Z,2.35
2022-11-16T15:35:41.411Z,3.95
2022-11-16T15:38:21.449Z,3.90
2022-11-16T15:40:56.554Z,2.60
2022-11-16T15:43:29.660Z,2.78
2022-11-16T15:45:57.047Z,3.10
2022-11-16T15:48:25.258Z,3.45
2022-11-16T15:51:08.480Z,2.15
2022-11-16T15:53:46.123Z,2.95
2022-11-16T15:56:27.474Z,2.30
2022-11-16T15:59:09.331Z,2.63
2022-11-16T16:01:42.724Z,3.47
2022-11-16T16:04:17.996Z,2.60
2022-11-16T16:06:51.839Z,2.08
2022-11-16T16:09:28.744Z,3.97
2022-11-16T16:12:17.043Z,2.58
2022-11-16T16:14:43.887Z,2.58
2022-11-16T16:17:12.246Z,1.85
2022-11-16T16:19:44.189Z,1.83
2022-11-16T16:22:32.480Z,3.00
2022-11-16T16:24:59.322Z,2.30
2022-11-16T16:27:30.142Z,2.85
2022-11-16T16:29:58.906Z,3.25
2022-11-16T16:32:26.715Z,2.88
2022-11-16T16:34:55.091Z,2.80
2022-11-16T16:37:22.330Z,3.70
2022-11-16T16:39:48.877Z,4.45
2022-11-16T16:42:17.043Z,3.58
2022-11-16T16:44:45.262Z,2.72
2022-11-16T16:47:12.232Z,2.88
2022-11-16T16:49:38.586Z,2.65
2022-11-16T16:52:06.203Z,3.28
2022-11-16T16:54:32.582Z,3.67
2022-11-16T16:57:01.303Z,2.92
2022-11-16T16:59:29.851Z,2.58
2022-11-16T17:01:57.528Z,2.85
2022-11-16T17:04:24.825Z,3.65
2022-11-16T17:06:52.301Z,3.65
2022-11-16T17:09:18.922Z,3.42
2022-11-16T17:11:46.892Z,3.22
2022-11-16T17:14:13.277Z,4.60
2022-11-16T17:16:39.651Z,3.25
2022-11-16T17:19:06.056Z,3.95
2022-11-16T17:21:32.512Z,3.05
2022-11-16T17:23:58.907Z,4.47
2022-11-16T17:26:29.151Z,3.75
2022-11-16T17:28:59.005Z,3.65
2022-11-16T17:31:26.024Z,3.88
2022-11-16T17:33:52.547Z,3.35
2022-11-16T17:36:20.037Z,4.13
2022-11-16T17:38:46.754Z,3.33
2022-11-16T17:41:15.695Z,3.85
2022-11-16T17:43:43.921Z,3.35
2022-11-16T17:46:13.412Z,3.90
2022-11-16T17:48:42.183Z,4.47
2022-11-16T17:51:09.707Z,4.38
2022-11-16T17:53:36.817Z,3.63
2022-11-16T17:56:04.301Z,4.63
2022-11-16T17:58:34.471Z,4.97
2022-11-16T18:01:00.983Z,5.20
2022-11-16T18:03:28.391Z,6.40
2022-11-16T18:06:27.139Z,5.72
2022-11-16T18:08:53.905Z,5.93
2022-11-16T18:11:28.525Z,5.50
2022-11-16T18:13:57.228Z,4.50
2022-11-16T18:16:25.901Z,5.13
2022-11-16T18:19:02.515Z,7.15
2022-11-16T18:21:29.717Z,9.63
2022-11-16T18:23:58.879Z,8.40
2022-11-16T18:26:25.246Z,5.78
2022-11-16T18:28:52.771Z,5.95
2022-11-16T18:31:21.399Z,5.53
2022-11-16T18:33:49.188Z,6.80
2022-11-16T18:36:16.243Z,5.65
2022-11-16T18:38:42.719Z,6.68
2022-11-16T18:41:11.762Z,6.75
2022-11-16T18:43:42.384Z,7.13
2022-11-16T18:46:08.766Z,6.40
2022-11-16T18:48:35.093Z,5.28
2022-11-16T18:51:03.534Z,4.80
2022-11-16T18:53:31.770Z,6.07
2022-11-16T18:55:58.555Z,5.47
2022-11-16T19:01:18.100Z,5.10
2022-11-16T19:03:44.796Z,4.22
2022-11-16T19:06:11.806Z,3.92
2022-11-16T19:08:39.542Z,5.00
2022-11-16T19:11:13.102Z,3.75
2022-11-16T19:13:40.743Z,6.03
2022-11-16T19:16:09.136Z,4.60
2022-11-16T19:18:38.444Z,5.45
2022-11-16T19:21:10.639Z,4.70
2022-11-16T19:26:07.794Z,4.00
2022-11-16T19:28:40.887Z,4.82
2022-11-16T19:31:12.588Z,3.65
2022-11-16T19:33:39.264Z,3.88
2022-11-16T19:36:17.414Z,4.05
2022-11-16T19:38:47.918Z,3.88
2022-11-16T19:41:16.493Z,3.63
2022-11-16T19:43:43.365Z,4.38
2022-11-16T19:46:12.693Z,3.80
2022-11-16T19:48:39.593Z,4.35
2022-11-16T19:51:06.999Z,3.30
2022-11-16T19:53:34.132Z,5.63
2022-11-16T19:56:00.913Z,3.40
2022-11-16T19:58:27.460Z,4.00
2022-11-16T20:01:01.305Z,6.03
2022-11-16T20:03:27.944Z,6.07
2022-11-16T20:06:04.154Z,5.63
2022-11-16T20:08:31.594Z,5.72
2022-11-16T20:10:57.922Z,4.88
2022-11-16T20:13:24.249Z,4.68
2022-11-16T20:15:51.002Z,5.25
2022-11-16T20:18:18.561Z,5.50
2022-11-16T20:20:45.111Z,5.50
2022-11-16T20:23:19.130Z,5.55
2022-11-16T20:25:45.682Z,4.43
2022-11-16T20:28:12.046Z,4.55
2022-11-16T20:30:38.390Z,4.45
2022-11-16T20:33:04.764Z,4.57
2022-11-16T20:35:32.996Z,4.68
2022-11-16T20:37:59.335Z,4.20
2022-11-16T20:40:25.693Z,4.47
2022-11-16T20:42:52.075Z,3.00
2022-11-16T20:45:18.407Z,3.83
2022-11-16T20:47:44.706Z,3.00
2022-11-16T20:50:11.100Z,2.28
2022-11-16T20:52:42.380Z,3.80
2022-11-16T20:55:16.037Z,2.78
2022-11-16T20:57:42.384Z,2.90
2022-11-16T21:00:09.345Z,2.95
2022-11-16T21:02:35.735Z,3.25
2022-11-16T21:05:02.386Z,3.42
2022-11-16T21:07:28.823Z,3.35
2022-11-16T21:10:27.328Z,3.50
2022-11-16T21:13:12.194Z,3.47
2022-11-16T21:15:38.513Z,2.42
2022-11-16T21:18:04.993Z,2.50
2022-11-16T21:20:31.438Z,2.40
2022-11-16T21:22:57.750Z,2.35
2022-11-16T21:25:24.156Z,3.13
2022-11-16T21:27:50.557Z,2.28
2022-11-16T21:30:17.073Z,2.78
2022-11-16T21:32:43.452Z,2.40
2022-11-16T21:35:09.843Z,2.40
2022-11-16T21:37:36.228Z,2.38
2022-11-16T21:40:03.335Z,3.05
2022-11-16T21:42:29.702Z,2.30
2022-11-16T21:44:56.035Z,3.10
2022-11-16T21:47:22.420Z,3.13
2022-11-16T21:50:16.755Z,3.47
2022-11-16T21:52:35.064Z,2.10
2022-11-16T21:55:01.569Z,2.80
2022-11-16T21:57:27.998Z,2.90
2022-11-16T21:59:54.381Z,2.30
2022-11-16T22:02:20.711Z,3.20
2022-11-16T22:05:05.416Z,2.53
2022-11-16T22:07:36.626Z,2.50
2022-11-16T22:10:08.652Z,2.92
2022-11-16T22:12:36.381Z,2.85
2022-11-16T22:15:04.322Z,2.67
2022-11-16T22:17:31.022Z,3.05
2022-11-16T22:19:57.368Z,3.17
2022-11-16T22:22:24.539Z,3.58
2022-11-16T22:24:51.159Z,3.50
2022-11-16T22:27:18.513Z,2.80
2022-11-16T22:29:44.835Z,4.00
2022-11-16T22:32:11.151Z,3.25
2022-11-16T22:34:37.564Z,3.75
2022-11-16T22:37:03.926Z,3.38
2022-11-16T22:39:30.374Z,3.05
2022-11-16T22:41:56.822Z,3.05
2022-11-16T22:44:23.181Z,3.95
2022-11-16T22:46:49.499Z,3.17
2022-11-16T22:49:15.858Z,3.00
2022-11-16T22:51:42.271Z,4.00
2022-11-16T22:54:11.316Z,3.47
2022-11-16T22:56:38.516Z,3.55
2022-11-16T22:59:07.756Z,3.15
2022-11-16T23:01:34.088Z,3.70
2022-11-16T23:04:00.540Z,3.42
2022-11-16T23:06:27.041Z,3.60
2022-11-16T23:08:53.720Z,3.13
2022-11-16T23:11:43.758Z,3.33
2022-11-16T23:14:31.212Z,3.15
2022-11-16T23:16:57.585Z,4.25
2022-11-16T23:19:42.779Z,4.22
2022-11-16T23:22:33.146Z,3.20
2022-11-16T23:25:18.299Z,4.30
2022-11-16T23:28:07.691Z,4.38
2022-11-16T23:30:35.031Z,3.28
2022-11-16T23:33:02.223Z,4.13
2022-11-16T23:35:28.590Z,3.25
2022-11-16T23:38:01.913Z,2.78
2022-11-16T23:40:31.108Z,3.78
2022-11-16T23:43:16.704Z,4.20
2022-11-16T23:45:44.394Z,3.00
2022-11-16T23:48:15.282Z,3.72
2022-11-16T23:50:42.239Z,3.92
2022-11-16T23:53:10.178Z,3.83
2022-11-16T23:55:38.322Z,3.22
2022-11-16T23:58:05.486Z,3.97
